sensor_id;sensor_type;location;lat;lon;timestamp;pressure;altitude;pressure_sealevel;temperature;humidity
9935;BME280;5006;41.828;23.478;2024-02-21T00:00:16;90741.16;;;14.01;43.65
9935;BME280;5006;41.828;23.478;2024-02-21T00:01:25;90753.06;;;13.39;43.87
9935;BME280;5006;41.828;23.478;2024-02-21T00:02:30;90742.03;;;13.05;43.87
9935;BME280;5006;41.828;23.478;2024-02-21T00:03:37;90746.41;;;13.61;43.80
9935;BME280;5006;41.828;23.478;2024-02-21T00:04:43;90744.00;;;13.77;43.19
9935;BME280;5006;41.828;23.478;2024-02-21T00:05:50;90743.06;;;14.52;42.85
9935;BME280;5006;41.828;23.478;2024-02-21T00:06:56;90738.16;;;14.43;42.20
9935;BME280;5006;41.828;23.478;2024-02-21T00:08:02;90735.19;;;13.69;43.44
9935;BME280;5006;41.828;23.478;2024-02-21T00:09:08;90728.63;;;14.32;43.01
9935;BME280;5006;41.828;23.478;2024-02-21T00:10:15;90736.09;;;14.58;42.69
9935;BME280;5006;41.828;23.478;2024-02-21T00:11:21;90735.75;;;14.01;42.94
9935;BME280;5006;41.828;23.478;2024-02-21T00:12:27;90729.53;;;14.59;42.25
9935;BME280;5006;41.828;23.478;2024-02-21T00:13:32;90731.28;;;14.76;41.78
9935;BME280;5006;41.828;23.478;2024-02-21T00:14:39;90733.63;;;14.74;41.09
9935;BME280;5006;41.828;23.478;2024-02-21T00:15:44;90726.53;;;14.50;42.92
9935;BME280;5006;41.828;23.478;2024-02-21T00:16:51;90728.56;;;15.13;41.35
9935;BME280;5006;41.828;23.478;2024-02-21T00:17:57;90717.69;;;15.53;40.62
9935;BME280;5006;41.828;23.478;2024-02-21T00:19:03;90721.25;;;15.46;40.23
9935;BME280;5006;41.828;23.478;2024-02-21T00:20:09;90729.72;;;16.05;39.70
9935;BME280;5006;41.828;23.478;2024-02-21T00:21:15;90725.53;;;15.70;39.50
9935;BME280;5006;41.828;23.478;2024-02-21T00:22:23;90726.75;;;15.03;40.81
9935;BME280;5006;41.828;23.478;2024-02-21T00:23:33;90731.75;;;14.23;41.30
9935;BME280;5006;41.828;23.478;2024-02-21T00:24:39;90734.63;;;13.34;42.56
9935;BME280;5006;41.828;23.478;2024-02-21T00:25:46;90730.66;;;12.32;45.80
9935;BME280;5006;41.828;23.478;2024-02-21T00:26:51;90730.28;;;12.40;46.21
9935;BME280;5006;41.828;23.478;2024-02-21T00:27:57;90727.34;;;13.27;45.33
9935;BME280;5006;41.828;23.478;2024-02-21T00:29:03;90734.78;;;14.29;43.93
9935;BME280;5006;41.828;23.478;2024-02-21T00:30:11;90739.91;;;14.16;44.42
9935;BME280;5006;41.828;23.478;2024-02-21T00:31:17;90738.03;;;14.06;44.72
9935;BME280;5006;41.828;23.478;2024-02-21T00:32:25;90732.75;;;13.20;46.49
9935;BME280;5006;41.828;23.478;2024-02-21T00:33:31;90734.13;;;13.56;46.02
9935;BME280;5006;41.828;23.478;2024-02-21T00:34:37;90747.31;;;14.02;44.95
9935;BME280;5006;41.828;23.478;2024-02-21T00:35:43;90742.94;;;14.66;44.65
9935;BME280;5006;41.828;23.478;2024-02-21T00:36:50;90739.66;;;13.93;45.09
9935;BME280;5006;41.828;23.478;2024-02-21T00:37:57;90739.59;;;14.92;44.00
9935;BME280;5006;41.828;23.478;2024-02-21T00:39:05;90740.13;;;15.13;43.55
9935;BME280;5006;41.828;23.478;2024-02-21T00:40:11;90733.47;;;13.96;44.03
9935;BME280;5006;41.828;23.478;2024-02-21T00:41:21;90738.56;;;15.15;43.36
9935;BME280;5006;41.828;23.478;2024-02-21T00:42:27;90729.72;;;15.75;42.69
9935;BME280;5006;41.828;23.478;2024-02-21T00:43:35;90740.94;;;15.10;43.25
9935;BME280;5006;41.828;23.478;2024-02-21T00:44:41;90730.09;;;15.13;43.59
9935;BME280;5006;41.828;23.478;2024-02-21T00:45:48;90731.44;;;14.11;45.35
9935;BME280;5006;41.828;23.478;2024-02-21T00:46:53;90730.53;;;14.31;45.12
9935;BME280;5006;41.828;23.478;2024-02-21T00:48:01;90727.03;;;14.34;44.82
9935;BME280;5006;41.828;23.478;2024-02-21T00:49:07;90729.09;;;14.64;44.63
9935;BME280;5006;41.828;23.478;2024-02-21T00:50:14;90727.91;;;15.02;44.37
9935;BME280;5006;41.828;23.478;2024-02-21T00:51:20;90725.66;;;16.16;42.73
9935;BME280;5006;41.828;23.478;2024-02-21T00:52:27;90716.03;;;15.29;43.46
9935;BME280;5006;41.828;23.478;2024-02-21T00:53:32;90720.25;;;14.60;45.24
9935;BME280;5006;41.828;23.478;2024-02-21T00:54:38;90716.09;;;15.85;43.27
9935;BME280;5006;41.828;23.478;2024-02-21T00:55:44;90712.94;;;15.30;43.81
9935;BME280;5006;41.828;23.478;2024-02-21T00:56:50;90721.03;;;14.97;44.37
9935;BME280;5006;41.828;23.478;2024-02-21T00:57:55;90716.22;;;15.75;43.29
9935;BME280;5006;41.828;23.478;2024-02-21T00:59:02;90713.47;;;15.78;42.97
9935;BME280;5006;41.828;23.478;2024-02-21T01:00:09;90714.91;;;15.56;43.48
9935;BME280;5006;41.828;23.478;2024-02-21T01:01:21;90711.78;;;15.61;43.26
9935;BME280;5006;41.828;23.478;2024-02-21T01:02:27;90708.72;;;15.59;43.08
9935;BME280;5006;41.828;23.478;2024-02-21T01:03:39;90714.22;;;16.05;42.65
9935;BME280;5006;41.828;23.478;2024-02-21T01:04:44;90713.22;;;16.22;42.12
9935;BME280;5006;41.828;23.478;2024-02-21T01:05:51;90710.38;;;16.56;41.50
9935;BME280;5006;41.828;23.478;2024-02-21T01:06:58;90708.28;;;15.61;42.44
9935;BME280;5006;41.828;23.478;2024-02-21T01:08:05;90701.28;;;15.93;42.87
9935;BME280;5006;41.828;23.478;2024-02-21T01:09:11;90713.59;;;15.71;42.71
9935;BME280;5006;41.828;23.478;2024-02-21T01:10:17;90713.72;;;16.40;42.37
9935;BME280;5006;41.828;23.478;2024-02-21T01:11:22;90711.31;;;16.69;41.60
9935;BME280;5006;41.828;23.478;2024-02-21T01:12:28;90705.53;;;16.44;41.65
9935;BME280;5006;41.828;23.478;2024-02-21T01:13:33;90707.97;;;15.85;42.39
9935;BME280;5006;41.828;23.478;2024-02-21T01:14:40;90709.25;;;15.77;42.87
9935;BME280;5006;41.828;23.478;2024-02-21T01:15:45;90714.22;;;16.32;42.57
9935;BME280;5006;41.828;23.478;2024-02-21T01:16:52;90709.72;;;16.22;42.33
9935;BME280;5006;41.828;23.478;2024-02-21T01:17:57;90709.13;;;16.11;42.15
9935;BME280;5006;41.828;23.478;2024-02-21T01:19:03;90711.19;;;15.13;43.77
9935;BME280;5006;41.828;23.478;2024-02-21T01:20:11;90699.13;;;15.81;42.76
9935;BME280;5006;41.828;23.478;2024-02-21T01:21:16;90697.28;;;16.01;42.40
9935;BME280;5006;41.828;23.478;2024-02-21T01:22:22;90695.84;;;15.93;42.60
9935;BME280;5006;41.828;23.478;2024-02-21T01:23:29;90693.97;;;15.64;43.32
9935;BME280;5006;41.828;23.478;2024-02-21T01:24:34;90699.13;;;15.81;42.63
9935;BME280;5006;41.828;23.478;2024-02-21T01:25:40;90694.13;;;15.20;43.36
9935;BME280;5006;41.828;23.478;2024-02-21T01:26:45;90693.63;;;15.32;43.03
9935;BME280;5006;41.828;23.478;2024-02-21T01:27:52;90691.13;;;15.44;43.26
9935;BME280;5006;41.828;23.478;2024-02-21T01:28:58;90691.28;;;15.90;42.28
9935;BME280;5006;41.828;23.478;2024-02-21T01:30:05;90685.72;;;15.44;42.81
9935;BME280;5006;41.828;23.478;2024-02-21T01:31:10;90687.53;;;15.54;43.11
9935;BME280;5006;41.828;23.478;2024-02-21T01:32:18;90686.38;;;16.31;42.24
9935;BME280;5006;41.828;23.478;2024-02-21T01:33:23;90684.59;;;15.98;42.68
9935;BME280;5006;41.828;23.478;2024-02-21T01:34:31;90688.69;;;16.06;41.95
9935;BME280;5006;41.828;23.478;2024-02-21T01:35:37;90686.06;;;16.26;42.22
9935;BME280;5006;41.828;23.478;2024-02-21T01:36:44;90689.25;;;15.08;43.17
9935;BME280;5006;41.828;23.478;2024-02-21T01:37:50;90684.00;;;15.27;43.20
9935;BME280;5006;41.828;23.478;2024-02-21T01:38:59;90688.91;;;15.92;42.32
9935;BME280;5006;41.828;23.478;2024-02-21T01:40:06;90679.00;;;15.59;43.21
9935;BME280;5006;41.828;23.478;2024-02-21T01:41:13;90686.84;;;14.47;43.78
9935;BME280;5006;41.828;23.478;2024-02-21T01:42:19;90681.28;;;15.87;42.26
9935;BME280;5006;41.828;23.478;2024-02-21T01:43:25;90675.41;;;15.06;43.68
9935;BME280;5006;41.828;23.478;2024-02-21T01:44:31;90675.34;;;15.69;42.98
9935;BME280;5006;41.828;23.478;2024-02-21T01:45:37;90675.81;;;15.91;42.40
9935;BME280;5006;41.828;23.478;2024-02-21T01:46:42;90672.03;;;15.85;42.77
9935;BME280;5006;41.828;23.478;2024-02-21T01:47:49;90674.25;;;15.37;43.22
9935;BME280;5006;41.828;23.478;2024-02-21T01:48:56;90673.38;;;15.13;43.74
9935;BME280;5006;41.828;23.478;2024-02-21T01:50:04;90669.78;;;15.23;43.93
9935;BME280;5006;41.828;23.478;2024-02-21T01:51:10;90674.41;;;14.12;45.15
9935;BME280;5006;41.828;23.478;2024-02-21T01:52:17;90676.94;;;14.33;45.91
9935;BME280;5006;41.828;23.478;2024-02-21T01:53:27;90667.88;;;14.54;45.38
9935;BME280;5006;41.828;23.478;2024-02-21T01:54:33;90672.09;;;14.18;45.81
9935;BME280;5006;41.828;23.478;2024-02-21T01:55:39;90673.56;;;13.75;46.27
9935;BME280;5006;41.828;23.478;2024-02-21T01:56:46;90679.13;;;14.49;45.71
9935;BME280;5006;41.828;23.478;2024-02-21T01:57:52;90675.22;;;12.76;48.47
9935;BME280;5006;41.828;23.478;2024-02-21T01:58:58;90667.84;;;12.90;48.58
9935;BME280;5006;41.828;23.478;2024-02-21T02:00:33;90676.69;;;13.01;48.18
9935;BME280;5006;41.828;23.478;2024-02-21T02:01:39;90679.00;;;12.89;48.29
9935;BME280;5006;41.828;23.478;2024-02-21T02:02:48;90675.34;;;13.41;47.93
9935;BME280;5006;41.828;23.478;2024-02-21T02:04:20;90676.31;;;13.03;48.20
9935;BME280;5006;41.828;23.478;2024-02-21T02:05:28;90682.00;;;13.77;46.06
9935;BME280;5006;41.828;23.478;2024-02-21T02:06:34;90683.13;;;13.83;46.88
9935;BME280;5006;41.828;23.478;2024-02-21T02:07:41;90680.84;;;13.16;48.67
9935;BME280;5006;41.828;23.478;2024-02-21T02:08:47;90684.34;;;13.75;47.66
9935;BME280;5006;41.828;23.478;2024-02-21T02:09:54;90676.22;;;14.70;46.16
9935;BME280;5006;41.828;23.478;2024-02-21T02:11:00;90688.03;;;13.95;46.74
9935;BME280;5006;41.828;23.478;2024-02-21T02:12:08;90684.78;;;12.91;48.44
9935;BME280;5006;41.828;23.478;2024-02-21T02:13:13;90676.25;;;13.13;48.48
9935;BME280;5006;41.828;23.478;2024-02-21T02:14:20;90680.19;;;12.85;48.95
9935;BME280;5006;41.828;23.478;2024-02-21T02:15:26;90679.03;;;14.19;47.74
9935;BME280;5006;41.828;23.478;2024-02-21T02:16:32;90679.84;;;13.58;47.79
9935;BME280;5006;41.828;23.478;2024-02-21T02:17:37;90676.06;;;13.45;47.78
9935;BME280;5006;41.828;23.478;2024-02-21T02:18:43;90678.25;;;12.85;48.87
9935;BME280;5006;41.828;23.478;2024-02-21T02:19:48;90674.44;;;12.79;49.13
9935;BME280;5006;41.828;23.478;2024-02-21T02:20:57;90673.56;;;13.10;48.65
9935;BME280;5006;41.828;23.478;2024-02-21T02:22:08;90674.44;;;13.61;48.50
9935;BME280;5006;41.828;23.478;2024-02-21T02:23:25;90673.47;;;13.31;49.31
9935;BME280;5006;41.828;23.478;2024-02-21T02:24:30;90677.94;;;12.69;50.33
9935;BME280;5006;41.828;23.478;2024-02-21T02:25:37;90673.28;;;12.84;50.88
9935;BME280;5006;41.828;23.478;2024-02-21T02:26:42;90671.50;;;13.38;49.78
9935;BME280;5006;41.828;23.478;2024-02-21T02:27:49;90673.56;;;13.13;49.81
9935;BME280;5006;41.828;23.478;2024-02-21T02:28:55;90670.94;;;13.03;50.50
9935;BME280;5006;41.828;23.478;2024-02-21T02:30:03;90666.63;;;13.12;49.70
9935;BME280;5006;41.828;23.478;2024-02-21T02:31:08;90666.69;;;13.67;49.20
9935;BME280;5006;41.828;23.478;2024-02-21T02:32:15;90671.16;;;13.87;48.48
9935;BME280;5006;41.828;23.478;2024-02-21T02:33:21;90668.47;;;14.35;47.88
9935;BME280;5006;41.828;23.478;2024-02-21T02:34:28;90663.78;;;14.39;47.56
9935;BME280;5006;41.828;23.478;2024-02-21T02:35:35;90665.41;;;14.33;48.07
9935;BME280;5006;41.828;23.478;2024-02-21T02:36:42;90655.72;;;13.91;48.68
9935;BME280;5006;41.828;23.478;2024-02-21T02:37:48;90664.09;;;15.14;46.96
9935;BME280;5006;41.828;23.478;2024-02-21T02:38:57;90665.81;;;14.28;47.65
9935;BME280;5006;41.828;23.478;2024-02-21T02:40:03;90666.09;;;14.40;47.85
9935;BME280;5006;41.828;23.478;2024-02-21T02:41:09;90667.94;;;14.50;47.69
9935;BME280;5006;41.828;23.478;2024-02-21T02:42:14;90656.69;;;15.18;46.68
9935;BME280;5006;41.828;23.478;2024-02-21T02:43:20;90666.84;;;15.11;46.93
9935;BME280;5006;41.828;23.478;2024-02-21T02:44:25;90664.84;;;14.85;46.69
9935;BME280;5006;41.828;23.478;2024-02-21T02:45:31;90665.53;;;14.56;47.36
9935;BME280;5006;41.828;23.478;2024-02-21T02:46:40;90662.91;;;15.75;45.80
9935;BME280;5006;41.828;23.478;2024-02-21T02:47:46;90663.44;;;16.16;44.56
9935;BME280;5006;41.828;23.478;2024-02-21T02:48:52;90657.44;;;16.28;45.20
9935;BME280;5006;41.828;23.478;2024-02-21T02:49:59;90670.09;;;16.58;44.20
9935;BME280;5006;41.828;23.478;2024-02-21T02:51:04;90656.59;;;16.77;44.14
9935;BME280;5006;41.828;23.478;2024-02-21T02:52:10;90665.94;;;16.27;44.67
9935;BME280;5006;41.828;23.478;2024-02-21T02:53:16;90662.94;;;16.48;44.60
9935;BME280;5006;41.828;23.478;2024-02-21T02:54:25;90663.91;;;17.19;43.70
9935;BME280;5006;41.828;23.478;2024-02-21T02:55:30;90660.25;;;17.64;43.29
9935;BME280;5006;41.828;23.478;2024-02-21T02:56:37;90658.06;;;18.27;42.53
9935;BME280;5006;41.828;23.478;2024-02-21T02:57:42;90668.44;;;18.48;41.97
9935;BME280;5006;41.828;23.478;2024-02-21T02:58:49;90664.75;;;17.16;43.61
9935;BME280;5006;41.828;23.478;2024-02-21T02:59:55;90669.09;;;17.68;42.65
9935;BME280;5006;41.828;23.478;2024-02-21T03:01:00;90665.34;;;16.42;43.85
9935;BME280;5006;41.828;23.478;2024-02-21T03:02:07;90667.34;;;15.62;45.24
9935;BME280;5006;41.828;23.478;2024-02-21T03:03:13;90672.75;;;13.20;48.29
9935;BME280;5006;41.828;23.478;2024-02-21T03:04:20;90677.25;;;14.42;47.49
9935;BME280;5006;41.828;23.478;2024-02-21T03:05:26;90673.44;;;14.36;46.75
9935;BME280;5006;41.828;23.478;2024-02-21T03:06:31;90664.31;;;14.23;46.90
9935;BME280;5006;41.828;23.478;2024-02-21T03:07:38;90672.97;;;15.15;46.13
9935;BME280;5006;41.828;23.478;2024-02-21T03:08:44;90670.56;;;14.54;46.61
9935;BME280;5006;41.828;23.478;2024-02-21T03:09:51;90672.16;;;15.18;46.07
9935;BME280;5006;41.828;23.478;2024-02-21T03:10:58;90675.09;;;16.13;45.06
9935;BME280;5006;41.828;23.478;2024-02-21T03:12:06;90676.88;;;16.46;44.43
9935;BME280;5006;41.828;23.478;2024-02-21T03:13:11;90673.88;;;16.83;43.68
9935;BME280;5006;41.828;23.478;2024-02-21T03:14:16;90670.56;;;15.80;44.43
9935;BME280;5006;41.828;23.478;2024-02-21T03:15:22;90672.41;;;14.97;46.34
9935;BME280;5006;41.828;23.478;2024-02-21T03:16:27;90673.69;;;14.52;46.57
9935;BME280;5006;41.828;23.478;2024-02-21T03:17:34;90672.19;;;15.14;46.22
9935;BME280;5006;41.828;23.478;2024-02-21T03:18:40;90676.25;;;15.00;46.59
9935;BME280;5006;41.828;23.478;2024-02-21T03:19:48;90670.75;;;15.07;46.30
9935;BME280;5006;41.828;23.478;2024-02-21T03:20:54;90668.91;;;15.00;46.46
9935;BME280;5006;41.828;23.478;2024-02-21T03:22:00;90685.81;;;13.83;48.13
9935;BME280;5006;41.828;23.478;2024-02-21T03:23:05;90682.28;;;14.77;47.22
9935;BME280;5006;41.828;23.478;2024-02-21T03:24:11;90677.31;;;15.06;46.65
9935;BME280;5006;41.828;23.478;2024-02-21T03:25:19;90671.03;;;14.05;47.43
9935;BME280;5006;41.828;23.478;2024-02-21T03:26:25;90673.22;;;13.04;48.85
9935;BME280;5006;41.828;23.478;2024-02-21T03:27:31;90679.34;;;13.73;48.15
9935;BME280;5006;41.828;23.478;2024-02-21T03:28:37;90673.03;;;15.71;45.30
9935;BME280;5006;41.828;23.478;2024-02-21T03:29:44;90669.31;;;14.99;46.08
9935;BME280;5006;41.828;23.478;2024-02-21T03:30:50;90668.91;;;15.33;45.17
9935;BME280;5006;41.828;23.478;2024-02-21T03:31:55;90672.28;;;15.41;45.31
9935;BME280;5006;41.828;23.478;2024-02-21T03:33:01;90674.06;;;14.51;46.31
9935;BME280;5006;41.828;23.478;2024-02-21T03:34:06;90674.84;;;14.04;47.39
9935;BME280;5006;41.828;23.478;2024-02-21T03:35:12;90668.75;;;14.44;46.68
9935;BME280;5006;41.828;23.478;2024-02-21T03:36:17;90682.47;;;14.16;47.03
9935;BME280;5006;41.828;23.478;2024-02-21T03:37:24;90677.63;;;13.97;47.04
9935;BME280;5006;41.828;23.478;2024-02-21T03:38:29;90680.13;;;14.21;47.02
9935;BME280;5006;41.828;23.478;2024-02-21T03:39:35;90674.41;;;14.56;46.92
9935;BME280;5006;41.828;23.478;2024-02-21T03:40:43;90676.19;;;14.33;47.45
9935;BME280;5006;41.828;23.478;2024-02-21T03:41:50;90677.25;;;14.79;46.84
9935;BME280;5006;41.828;23.478;2024-02-21T03:42:56;90677.41;;;13.74;48.40
9935;BME280;5006;41.828;23.478;2024-02-21T03:44:04;90671.59;;;13.17;49.20
9935;BME280;5006;41.828;23.478;2024-02-21T03:45:10;90677.03;;;13.72;49.21
9935;BME280;5006;41.828;23.478;2024-02-21T03:46:16;90675.81;;;14.68;46.95
9935;BME280;5006;41.828;23.478;2024-02-21T03:47:21;90678.28;;;14.55;47.23
9935;BME280;5006;41.828;23.478;2024-02-21T03:48:27;90671.78;;;14.02;48.31
9935;BME280;5006;41.828;23.478;2024-02-21T03:49:32;90673.28;;;14.10;48.04
9935;BME280;5006;41.828;23.478;2024-02-21T03:50:39;90670.88;;;14.22;48.01
9935;BME280;5006;41.828;23.478;2024-02-21T03:51:45;90676.25;;;14.66;47.36
9935;BME280;5006;41.828;23.478;2024-02-21T03:52:51;90671.91;;;15.06;46.35
9935;BME280;5006;41.828;23.478;2024-02-21T03:53:56;90673.03;;;14.78;46.59
9935;BME280;5006;41.828;23.478;2024-02-21T03:55:02;90672.16;;;15.18;46.36
9935;BME280;5006;41.828;23.478;2024-02-21T03:56:08;90670.75;;;15.07;46.07
9935;BME280;5006;41.828;23.478;2024-02-21T03:57:15;90672.97;;;15.15;46.03
9935;BME280;5006;41.828;23.478;2024-02-21T03:58:23;90672.06;;;15.25;45.60
9935;BME280;5006;41.828;23.478;2024-02-21T03:59:30;90669.63;;;15.04;45.75
9935;BME280;5006;41.828;23.478;2024-02-21T04:00:36;90668.91;;;15.33;45.40
9935;BME280;5006;41.828;23.478;2024-02-21T04:01:42;90667.03;;;15.27;45.53
9935;BME280;5006;41.828;23.478;2024-02-21T04:02:47;90667.47;;;15.22;45.46
9935;BME280;5006;41.828;23.478;2024-02-21T04:03:53;90670.69;;;14.80;46.14
9935;BME280;5006;41.828;23.478;2024-02-21T04:04:58;90667.53;;;14.85;46.32
9935;BME280;5006;41.828;23.478;2024-02-21T04:06:04;90676.88;;;14.40;46.91
9935;BME280;5006;41.828;23.478;2024-02-21T04:07:10;90676.66;;;13.73;47.26
9935;BME280;5006;41.828;23.478;2024-02-21T04:08:16;90686.31;;;12.88;50.58
9935;BME280;5006;41.828;23.478;2024-02-21T04:09:21;90680.53;;;13.69;48.22
9935;BME280;5006;41.828;23.478;2024-02-21T04:10:28;90682.22;;;12.49;50.56
9935;BME280;5006;41.828;23.478;2024-02-21T04:11:35;90680.97;;;12.82;50.89
9935;BME280;5006;41.828;23.478;2024-02-21T04:12:42;90682.41;;;13.10;50.26
9935;BME280;5006;41.828;23.478;2024-02-21T04:13:47;90679.41;;;12.91;50.69
9935;BME280;5006;41.828;23.478;2024-02-21T04:14:55;90682.06;;;13.73;49.00
9935;BME280;5006;41.828;23.478;2024-02-21T04:16:01;90680.56;;;14.20;47.81
9935;BME280;5006;41.828;23.478;2024-02-21T04:17:08;90682.88;;;14.14;47.43
9935;BME280;5006;41.828;23.478;2024-02-21T04:18:14;90682.81;;;14.21;47.38
9935;BME280;5006;41.828;23.478;2024-02-21T04:19:20;90679.41;;;14.10;47.69
9935;BME280;5006;41.828;23.478;2024-02-21T04:20:26;90687.06;;;14.22;47.10
9935;BME280;5006;41.828;23.478;2024-02-21T04:21:31;90691.69;;;14.25;46.89
9935;BME280;5006;41.828;23.478;2024-02-21T04:22:37;90689.56;;;13.96;47.61
9935;BME280;5006;41.828;23.478;2024-02-21T04:23:43;90695.28;;;14.52;46.83
9935;BME280;5006;41.828;23.478;2024-02-21T04:24:49;90697.53;;;14.13;46.79
9935;BME280;5006;41.828;23.478;2024-02-21T04:25:54;90698.06;;;13.94;47.32
9935;BME280;5006;41.828;23.478;2024-02-21T04:27:01;90691.47;;;13.44;48.49
9935;BME280;5006;41.828;23.478;2024-02-21T04:28:07;90696.75;;;13.58;47.98
9935;BME280;5006;41.828;23.478;2024-02-21T04:29:14;90690.69;;;13.47;47.88
9935;BME280;5006;41.828;23.478;2024-02-21T04:30:19;90689.09;;;13.57;47.76
9935;BME280;5006;41.828;23.478;2024-02-21T04:31:26;90695.84;;;13.79;47.45
9935;BME280;5006;41.828;23.478;2024-02-21T04:32:31;90701.28;;;13.07;48.76
9935;BME280;5006;41.828;23.478;2024-02-21T04:33:38;90699.44;;;13.62;48.20
9935;BME280;5006;41.828;23.478;2024-02-21T04:34:43;90702.66;;;12.12;50.09
9935;BME280;5006;41.828;23.478;2024-02-21T04:35:49;90703.81;;;11.72;51.63
9935;BME280;5006;41.828;23.478;2024-02-21T04:36:55;90698.00;;;11.42;52.40
9935;BME280;5006;41.828;23.478;2024-02-21T04:38:02;90701.13;;;12.07;51.14
9935;BME280;5006;41.828;23.478;2024-02-21T04:39:08;90696.53;;;12.08;51.12
9935;BME280;5006;41.828;23.478;2024-02-21T04:40:14;90699.59;;;11.85;51.41
9935;BME280;5006;41.828;23.478;2024-02-21T04:41:21;90697.16;;;12.68;50.26
9935;BME280;5006;41.828;23.478;2024-02-21T04:42:27;90693.38;;;12.48;50.34
9935;BME280;5006;41.828;23.478;2024-02-21T04:43:34;90701.47;;;12.30;50.32
9935;BME280;5006;41.828;23.478;2024-02-21T04:44:40;90695.00;;;11.89;50.16
9935;BME280;5006;41.828;23.478;2024-02-21T04:45:47;90697.28;;;11.87;51.51
9935;BME280;5006;41.828;23.478;2024-02-21T04:46:52;90697.28;;;12.12;50.57
9935;BME280;5006;41.828;23.478;2024-02-21T04:47:58;90698.84;;;11.88;50.64
9935;BME280;5006;41.828;23.478;2024-02-21T04:49:03;90696.47;;;12.39;50.10
9935;BME280;5006;41.828;23.478;2024-02-21T04:50:09;90700.31;;;12.31;49.77
9935;BME280;5006;41.828;23.478;2024-02-21T04:51:14;90709.50;;;11.39;52.63
9935;BME280;5006;41.828;23.478;2024-02-21T04:52:20;90695.75;;;11.79;51.97
9935;BME280;5006;41.828;23.478;2024-02-21T04:53:25;90699.19;;;11.94;51.33
9935;BME280;5006;41.828;23.478;2024-02-21T04:54:32;90707.44;;;10.91;53.40
9935;BME280;5006;41.828;23.478;2024-02-21T04:55:40;90706.00;;;11.25;52.50
9935;BME280;5006;41.828;23.478;2024-02-21T04:56:47;90706.06;;;12.44;50.44
9935;BME280;5006;41.828;23.478;2024-02-21T04:57:53;90699.47;;;12.69;49.67
9935;BME280;5006;41.828;23.478;2024-02-21T04:59:00;90699.47;;;12.62;49.19
9935;BME280;5006;41.828;23.478;2024-02-21T05:00:07;90697.28;;;11.77;49.95
9935;BME280;5006;41.828;23.478;2024-02-21T05:01:14;90703.22;;;12.92;49.37
9935;BME280;5006;41.828;23.478;2024-02-21T05:02:20;90701.75;;;12.81;49.37
9935;BME280;5006;41.828;23.478;2024-02-21T05:03:29;90699.97;;;12.15;49.74
9935;BME280;5006;41.828;23.478;2024-02-21T05:04:34;90699.97;;;12.08;50.61
9935;BME280;5006;41.828;23.478;2024-02-21T05:05:42;90695.75;;;11.93;51.04
9935;BME280;5006;41.828;23.478;2024-02-21T05:06:48;90705.72;;;11.68;51.40
9935;BME280;5006;41.828;23.478;2024-02-21T05:07:55;90697.97;;;12.47;50.19
9935;BME280;5006;41.828;23.478;2024-02-21T05:09:00;90702.28;;;12.06;50.28
9935;BME280;5006;41.828;23.478;2024-02-21T05:10:08;90707.66;;;12.13;51.36
9935;BME280;5006;41.828;23.478;2024-02-21T05:11:14;90704.06;;;11.15;52.45
9935;BME280;5006;41.828;23.478;2024-02-21T05:12:20;90705.72;;;12.10;51.07
9935;BME280;5006;41.828;23.478;2024-02-21T05:13:28;90707.22;;;12.32;50.64
9935;BME280;5006;41.828;23.478;2024-02-21T05:14:34;90703.03;;;12.17;50.62
9935;BME280;5006;41.828;23.478;2024-02-21T05:15:39;90707.25;;;11.59;51.53
9935;BME280;5006;41.828;23.478;2024-02-21T05:16:45;90701.50;;;12.16;50.61
9935;BME280;5006;41.828;23.478;2024-02-21T05:17:51;90706.47;;;12.00;51.29
9935;BME280;5006;41.828;23.478;2024-02-21T05:18:59;90693.78;;;12.29;50.47
9935;BME280;5006;41.828;23.478;2024-02-21T05:20:06;90694.59;;;12.01;50.26
9935;BME280;5006;41.828;23.478;2024-02-21T05:21:13;90697.19;;;12.54;49.61
9935;BME280;5006;41.828;23.478;2024-02-21T05:22:20;90707.25;;;12.36;49.95
9935;BME280;5006;41.828;23.478;2024-02-21T05:23:26;90702.56;;;12.61;50.09
9935;BME280;5006;41.828;23.478;2024-02-21T05:24:31;90710.16;;;13.04;48.70
9935;BME280;5006;41.828;23.478;2024-02-21T05:25:40;90710.16;;;12.93;48.67
9935;BME280;5006;41.828;23.478;2024-02-21T05:26:45;90706.75;;;12.72;49.17
9935;BME280;5006;41.828;23.478;2024-02-21T05:27:51;90706.03;;;11.28;50.80
9935;BME280;5006;41.828;23.478;2024-02-21T05:29:00;90711.25;;;10.83;52.47
9935;BME280;5006;41.828;23.478;2024-02-21T05:30:07;90710.97;;;11.19;52.15
9935;BME280;5006;41.828;23.478;2024-02-21T05:31:12;90706.50;;;12.14;50.49
9935;BME280;5006;41.828;23.478;2024-02-21T05:32:19;90711.50;;;11.74;50.70
9935;BME280;5006;41.828;23.478;2024-02-21T05:33:24;90703.03;;;11.82;50.18
9935;BME280;5006;41.828;23.478;2024-02-21T05:34:31;90709.16;;;12.25;50.11
9935;BME280;5006;41.828;23.478;2024-02-21T05:35:37;90706.34;;;11.09;51.42
9935;BME280;5006;41.828;23.478;2024-02-21T05:36:43;90704.81;;;11.05;52.38
9935;BME280;5006;41.828;23.478;2024-02-21T05:37:49;90718.22;;;10.23;54.45
9935;BME280;5006;41.828;23.478;2024-02-21T05:38:57;90712.56;;;10.39;54.38
9935;BME280;5006;41.828;23.478;2024-02-21T05:40:04;90710.88;;;10.88;54.04
9935;BME280;5006;41.828;23.478;2024-02-21T05:41:11;90716.94;;;10.68;54.27
9935;BME280;5006;41.828;23.478;2024-02-21T05:42:16;90716.25;;;10.91;54.16
9935;BME280;5006;41.828;23.478;2024-02-21T05:43:23;90718.34;;;11.50;52.89
9935;BME280;5006;41.828;23.478;2024-02-21T05:44:30;90715.59;;;11.19;53.44
9935;BME280;5006;41.828;23.478;2024-02-21T05:45:36;90717.25;;;11.69;52.66
9935;BME280;5006;41.828;23.478;2024-02-21T05:46:42;90724.53;;;11.79;52.79
9935;BME280;5006;41.828;23.478;2024-02-21T05:47:49;90724.88;;;12.44;51.56
9935;BME280;5006;41.828;23.478;2024-02-21T05:48:55;90729.53;;;11.91;51.25
9935;BME280;5006;41.828;23.478;2024-02-21T05:50:01;90724.16;;;11.98;52.29
9935;BME280;5006;41.828;23.478;2024-02-21T05:51:07;90725.22;;;12.70;50.73
9935;BME280;5006;41.828;23.478;2024-02-21T05:52:14;90728.25;;;12.93;51.00
9935;BME280;5006;41.828;23.478;2024-02-21T05:53:20;90731.72;;;12.76;50.40
9935;BME280;5006;41.828;23.478;2024-02-21T05:54:27;90731.72;;;12.80;51.06
9935;BME280;5006;41.828;23.478;2024-02-21T05:55:33;90732.00;;;13.23;50.46
9935;BME280;5006;41.828;23.478;2024-02-21T05:56:44;90730.06;;;14.43;49.57